createdAt,value
2022-12-11T00:04:45.239Z,10.40
2022-12-11T00:09:52.741Z,9.10
2022-12-11T00:15:03.529Z,7.10
2022-12-11T00:20:13.340Z,8.60
2022-12-11T00:25:20.709Z,10.40
2022-12-11T00:30:28.039Z,7.60
2022-12-11T00:40:41.321Z,7.90
2022-12-11T00:45:50.391Z,6.80
2022-12-11T00:50:57.618Z,7.90
2022-12-11T01:01:13.678Z,5.90
2022-12-11T01:06:23.019Z,6.00
2022-12-11T01:11:40.077Z,9.60
2022-12-11T01:16:48.308Z,8.90
2022-12-11T01:21:55.984Z,8.30
2022-12-11T01:32:25.238Z,9.60
2022-12-11T01:42:46.781Z,9.60
2022-12-11T01:47:57.075Z,7.50
2022-12-11T01:53:08.595Z,8.40
2022-12-11T01:58:17.942Z,7.80
2022-12-11T02:03:25.777Z,8.70
2022-12-11T02:08:37.924Z,7.80
2022-12-11T02:13:53.875Z,4.80
2022-12-11T02:19:09.561Z,9.00
2022-12-11T02:24:49.366Z,9.80
2022-12-11T02:30:03.186Z,8.00
2022-12-11T02:35:18.724Z,6.70
2022-12-11T02:40:31.517Z,3.30
2022-12-11T02:45:43.167Z,7.50
2022-12-11T02:50:53.907Z,5.60
2022-12-11T02:56:09.706Z,7.40
2022-12-11T03:01:18.222Z,7.90
2022-12-11T03:06:30.285Z,8.60
2022-12-11T03:11:41.281Z,7.20
2022-12-11T03:17:04.000Z,6.80
2022-12-11T03:22:19.223Z,7.00
2022-12-11T03:27:36.106Z,8.00
2022-12-11T03:32:49.486Z,7.70
2022-12-11T03:37:59.353Z,5.10
2022-12-11T03:43:09.509Z,8.20
2022-12-11T03:48:26.216Z,7.80
2022-12-11T03:53:39.928Z,5.70
2022-12-11T03:58:47.837Z,6.90
2022-12-11T04:03:57.973Z,7.40
2022-12-11T04:09:07.137Z,4.40
2022-12-11T04:14:35.186Z,3.50
2022-12-11T04:20:00.529Z,5.60
2022-12-11T04:25:10.370Z,7.20
2022-12-11T04:30:21.267Z,4.60
2022-12-11T04:35:28.888Z,5.90
2022-12-11T04:40:36.634Z,7.20
2022-12-11T04:45:44.298Z,6.90
2022-12-11T04:50:51.860Z,3.20
2022-12-11T04:55:59.739Z,6.70
2022-12-11T05:01:12.026Z,5.60
2022-12-11T05:06:19.757Z,3.50
2022-12-11T05:11:27.074Z,4.70
2022-12-11T05:16:34.673Z,5.10
2022-12-11T05:21:42.848Z,5.80
2022-12-11T05:26:50.388Z,5.60
2022-12-11T05:31:57.611Z,8.10
2022-12-11T05:42:17.334Z,6.70
2022-12-11T05:52:30.316Z,6.00
2022-12-11T05:57:37.547Z,4.90
2022-12-11T06:07:51.797Z,6.70
2022-12-11T06:12:59.431Z,8.00
2022-12-11T06:18:07.438Z,7.20
2022-12-11T06:23:15.524Z,3.80
2022-12-11T06:28:22.791Z,6.40
2022-12-11T06:38:36.754Z,7.20
2022-12-11T06:43:46.257Z,7.20
2022-12-11T06:48:53.517Z,6.70
2022-12-11T06:59:07.777Z,7.30
2022-12-11T07:04:17.055Z,5.20
2022-12-11T07:09:24.866Z,5.30
2022-12-11T07:14:32.784Z,6.90
2022-12-11T07:19:40.915Z,9.00
2022-12-11T07:24:48.920Z,6.80
2022-12-11T07:29:56.551Z,7.30
2022-12-11T07:35:03.971Z,6.10
2022-12-11T07:40:14.318Z,5.80
2022-12-11T07:45:21.612Z,6.50
2022-12-11T07:55:35.108Z,7.00
2022-12-11T08:00:42.569Z,4.50
2022-12-11T08:05:51.595Z,6.70
2022-12-11T08:11:02.244Z,4.40
2022-12-11T08:16:13.268Z,6.90
2022-12-11T08:21:22.830Z,5.20
2022-12-11T08:26:31.615Z,4.70
2022-12-11T08:31:39.885Z,7.80
2022-12-11T08:36:47.680Z,6.40
2022-12-11T08:41:55.149Z,6.10
2022-12-11T08:47:02.569Z,3.90
2022-12-11T08:57:16.477Z,5.40
2022-12-11T09:02:23.798Z,6.80
2022-12-11T09:07:31.098Z,6.40
2022-12-11T09:17:49.177Z,6.60
2022-12-11T09:22:56.859Z,6.60
2022-12-11T09:28:04.223Z,7.00
2022-12-11T09:33:12.052Z,7.00
2022-12-11T09:38:20.385Z,6.00
2022-12-11T09:43:40.975Z,5.70
2022-12-11T09:48:52.718Z,7.80
2022-12-11T09:54:04.944Z,7.60
2022-12-11T09:59:39.297Z,9.00
2022-12-11T10:04:59.312Z,8.90
2022-12-11T10:10:18.743Z,7.50
2022-12-11T10:15:37.074Z,6.50
2022-12-11T10:20:45.769Z,4.70
2022-12-11T10:25:59.865Z,8.20
2022-12-11T10:31:15.182Z,6.10
2022-12-11T10:36:28.075Z,6.70
2022-12-11T10:41:40.987Z,6.80
2022-12-11T10:46:49.968Z,10.00
2022-12-11T10:52:01.929Z,9.00
2022-12-11T10:57:11.532Z,7.90
2022-12-11T11:02:27.065Z,9.70
2022-12-11T11:07:34.653Z,5.80
2022-12-11T11:12:47.407Z,7.40
2022-12-11T11:17:56.905Z,8.60
2022-12-11T11:23:15.585Z,6.70
2022-12-11T11:28:26.637Z,10.20
2022-12-11T11:33:36.730Z,9.80
2022-12-11T11:38:50.691Z,9.20
2022-12-11T11:44:00.871Z,8.80
2022-12-11T11:49:15.373Z,8.20
2022-12-11T11:54:32.346Z,8.70
2022-12-11T11:59:47.739Z,6.90
2022-12-11T12:04:55.593Z,4.70
2022-12-11T12:10:13.017Z,9.10
2022-12-11T12:15:30.859Z,11.10
2022-12-11T12:26:02.477Z,9.00
2022-12-11T12:31:24.717Z,8.70
2022-12-11T12:36:41.241Z,7.50
2022-12-11T12:42:12.953Z,7.10
2022-12-11T12:47:21.629Z,6.60
2022-12-11T12:52:33.249Z,5.80
2022-12-11T12:57:43.934Z,9.30
2022-12-11T13:02:54.005Z,6.60
2022-12-11T13:08:03.970Z,8.60
2022-12-11T13:13:36.447Z,8.40
2022-12-11T13:18:47.625Z,7.00
2022-12-11T13:23:55.199Z,8.90
2022-12-11T13:29:04.444Z,8.30
2022-12-11T13:34:22.226Z,9.60
2022-12-11T13:39:31.766Z,6.30
2022-12-11T13:44:46.066Z,6.30
2022-12-11T13:58:00.643Z,7.60
2022-12-11T14:03:09.406Z,10.40
2022-12-11T14:08:25.728Z,9.10
2022-12-11T14:13:37.021Z,6.70
2022-12-11T14:18:45.293Z,5.00
2022-12-11T14:23:57.736Z,8.80
2022-12-11T14:29:06.282Z,8.80
2022-12-11T14:34:19.589Z,9.60
2022-12-11T14:39:31.328Z,8.90
2022-12-11T14:44:50.802Z,8.80
2022-12-11T14:50:04.169Z,8.00
2022-12-11T14:55:17.522Z,8.40
2022-12-11T15:00:30.785Z,7.10
2022-12-11T15:05:49.716Z,7.00
2022-12-11T15:11:09.753Z,9.80
2022-12-11T15:16:17.665Z,9.80
2022-12-11T15:21:32.716Z,9.10
2022-12-11T15:26:46.052Z,8.60
2022-12-11T15:32:02.568Z,10.70
2022-12-11T15:37:22.078Z,8.10
2022-12-11T15:42:32.532Z,9.20
2022-12-11T15:47:39.940Z,7.90
2022-12-11T15:52:47.664Z,9.10
2022-12-11T15:57:57.255Z,6.50
2022-12-11T16:03:04.813Z,9.10
2022-12-11T16:08:15.346Z,8.20
2022-12-11T16:13:23.037Z,9.90
2022-12-11T16:18:30.413Z,6.90
2022-12-11T16:23:37.596Z,9.10
2022-12-11T16:33:51.226Z,10.10
2022-12-11T16:38:58.422Z,8.50
2022-12-11T16:49:11.653Z,10.40
2022-12-11T16:59:24.787Z,11.70
2022-12-11T17:04:32.839Z,8.10
2022-12-11T17:09:40.269Z,11.60
2022-12-11T17:14:47.770Z,7.70
2022-12-11T17:19:55.369Z,11.70
2022-12-11T17:25:02.867Z,14.90
2022-12-11T17:30:13.620Z,11.40
2022-12-11T17:35:21.287Z,10.70
2022-12-11T17:40:28.763Z,10.80
2022-12-11T17:45:39.165Z,11.70
2022-12-11T17:50:48.654Z,11.80
2022-12-11T17:55:57.140Z,11.30
2022-12-11T18:01:09.960Z,12.00
2022-12-11T18:06:18.592Z,13.70
2022-12-11T18:11:26.934Z,11.10
2022-12-11T18:16:37.007Z,13.20
2022-12-11T18:21:45.973Z,22.60
2022-12-11T18:26:53.218Z,16.60
2022-12-11T18:37:07.220Z,13.10
2022-12-11T18:47:42.838Z,12.40
2022-12-11T18:52:53.492Z,14.60
2022-12-11T18:58:00.744Z,10.10
2022-12-11T19:08:16.540Z,8.10
2022-12-11T19:13:23.935Z,12.30
2022-12-11T19:18:31.155Z,13.40
2022-12-11T19:23:39.042Z,11.90
2022-12-11T19:28:46.864Z,13.60
2022-12-11T19:33:54.177Z,15.10
2022-12-11T19:39:05.058Z,18.40
2022-12-11T19:44:17.363Z,10.30
2022-12-11T19:49:24.665Z,15.10
2022-12-11T19:54:32.690Z,14.90
2022-12-11T19:59:39.973Z,12.70
2022-12-11T20:09:53.098Z,14.10
2022-12-11T20:15:00.509Z,15.40
2022-12-11T20:20:10.039Z,10.90
2022-12-11T20:25:17.634Z,14.30
2022-12-11T20:30:26.156Z,17.50
2022-12-11T20:35:34.799Z,9.70
2022-12-11T20:40:42.607Z,13.20
2022-12-11T20:45:52.206Z,15.10
2022-12-11T20:51:02.685Z,13.40
2022-12-11T20:56:15.321Z,13.30
2022-12-11T21:01:24.704Z,18.00
2022-12-11T21:06:35.111Z,12.70
2022-12-11T21:11:43.337Z,10.90
2022-12-11T21:20:24.629Z,14.40
2022-12-11T21:25:32.045Z,11.00
2022-12-11T21:30:41.458Z,9.90
2022-12-11T21:35:57.809Z,16.30
2022-12-11T21:41:15.794Z,14.60
2022-12-11T21:46:25.883Z,13.80
2022-12-11T21:51:39.372Z,11.60
2022-12-11T21:56:50.122Z,13.00
2022-12-11T22:01:57.898Z,17.10
2022-12-11T22:07:05.412Z,12.90
2022-12-11T22:17:19.383Z,8.10
2022-12-11T22:22:28.016Z,13.20
2022-12-11T22:27:36.028Z,15.80
2022-12-11T22:32:44.025Z,8.80
2022-12-11T22:37:52.644Z,10.40
2022-12-11T22:43:00.281Z,13.00
2022-12-11T22:48:09.324Z,11.20
2022-12-11T22:53:17.337Z,10.60
2022-12-11T22:58:24.847Z,14.30
2022-12-11T23:03:32.513Z,13.80
2022-12-11T23:08:40.431Z,14.20
2022-12-11T23:13:48.083Z,10.90
2022-12-11T23:18:56.367Z,11.80
2022-12-11T23:24:05.459Z,10.70
2022-12-11T23:29:12.967Z,12.00
2022-12-11T23:34:20.130Z,13.00
2022-12-11T23:39:27.658Z,9.70
2022-12-11T23:44:34.873Z,10.50
2022-12-11T23:49:42.923Z,10.40
2022-12-11T23:54:50.230Z,8.70
